createdAt,value
2023-04-14T00:02:52.569Z,100588.59
2023-04-14T00:07:56.781Z,100592.69
2023-04-14T00:13:01.185Z,100585.28
2023-04-14T00:18:04.360Z,100587.69
2023-04-14T00:23:08.602Z,100588.22
2023-04-14T00:28:11.361Z,100604.16
2023-04-14T00:33:14.075Z,100609.78
2023-04-14T00:38:18.437Z,100620.66
2023-04-14T00:43:21.230Z,100621.09
2023-04-14T00:48:24.064Z,100623.47
2023-04-14T00:53:28.942Z,100619.72
2023-04-14T00:58:32.551Z,100627.06
2023-04-14T01:03:37.267Z,100634.63
2023-04-14T01:08:41.605Z,100631.47
2023-04-14T01:13:52.847Z,100632.34
2023-04-14T01:19:02.526Z,100621.94
2023-04-14T01:24:38.704Z,100628.03
2023-04-14T01:30:01.293Z,100625.22
2023-04-14T01:35:10.343Z,100632.31
2023-04-14T01:40:19.495Z,100637.09
2023-04-14T01:45:26.454Z,100629.69
2023-04-14T01:50:32.520Z,100629.09
2023-04-14T01:55:38.428Z,100634.09
2023-04-14T02:00:43.743Z,100627.84
2023-04-14T02:05:49.975Z,100629.44
2023-04-14T02:10:57.552Z,100634.81
2023-04-14T02:16:02.730Z,100637.59
2023-04-14T02:21:07.614Z,100625.72
2023-04-14T02:26:14.740Z,100635.88
2023-04-14T02:31:23.739Z,100640.66
2023-04-14T02:36:35.493Z,100649.13
2023-04-14T02:41:41.536Z,100656.31
2023-04-14T02:47:07.733Z,100653.81
2023-04-14T02:52:18.548Z,100658.13
2023-04-14T02:57:23.130Z,100662.56
2023-04-14T03:02:28.240Z,100665.44
2023-04-14T03:07:43.084Z,100670.16
2023-04-14T03:12:49.000Z,100674.53
2023-04-14T03:17:55.905Z,100673.72
2023-04-14T03:23:05.328Z,100676.59
2023-04-14T03:28:16.383Z,100673.13
2023-04-14T03:33:25.973Z,100674.91
2023-04-14T03:38:32.780Z,100673.53
2023-04-14T03:43:37.449Z,100672.03
2023-04-14T03:48:47.214Z,100677.91
2023-04-14T03:53:56.848Z,100675.44
2023-04-14T03:59:02.460Z,100680.63
2023-04-14T04:04:08.944Z,100684.09
2023-04-14T04:09:15.838Z,100679.41
2023-04-14T04:14:21.138Z,100683.41
2023-04-14T04:19:26.226Z,100687.59
2023-04-14T04:24:37.730Z,100698.25
2023-04-14T04:29:42.876Z,100702.41
2023-04-14T04:34:47.595Z,100711.06
2023-04-14T04:39:53.835Z,100702.19
2023-04-14T04:44:57.105Z,100696.41
2023-04-14T04:50:00.481Z,100701.97
2023-04-14T04:55:05.373Z,100697.59
2023-04-14T05:00:09.612Z,100698.19
2023-04-14T05:05:12.482Z,100706.28
2023-04-14T05:10:16.789Z,100703.09
2023-04-14T05:15:19.568Z,100703.81
2023-04-14T05:20:22.381Z,100707.28
2023-04-14T05:25:26.478Z,100705.25
2023-04-14T05:30:29.815Z,100707.97
2023-04-14T05:35:32.570Z,100710.50
2023-04-14T05:40:36.681Z,100703.84
2023-04-14T05:45:39.447Z,100706.25
2023-04-14T05:50:42.335Z,100710.44
2023-04-14T05:55:47.910Z,100708.53
2023-04-14T06:00:50.762Z,100701.72
2023-04-14T06:05:53.521Z,100711.31
2023-04-14T06:10:57.944Z,100716.41
2023-04-14T06:16:00.913Z,100718.00
2023-04-14T06:21:03.685Z,100714.88
2023-04-14T06:26:08.221Z,100710.09
2023-04-14T06:31:10.975Z,100703.78
2023-04-14T06:36:14.849Z,100703.91
2023-04-14T06:41:19.004Z,100695.38
2023-04-14T06:46:21.775Z,100699.34
2023-04-14T06:51:27.160Z,100695.88
2023-04-14T06:56:31.257Z,100691.84
2023-04-14T07:01:34.172Z,100692.38
2023-04-14T07:06:38.152Z,100688.88
2023-04-14T07:11:42.324Z,100695.03
2023-04-14T07:16:45.069Z,100695.06
2023-04-14T07:21:48.251Z,100695.56
2023-04-14T07:26:52.501Z,100698.28
2023-04-14T07:31:55.339Z,100696.06
2023-04-14T07:36:58.177Z,100698.66
2023-04-14T07:42:02.318Z,100694.88
2023-04-14T07:47:05.137Z,100693.22
2023-04-14T07:52:07.905Z,100698.25
2023-04-14T07:57:12.086Z,100696.88
2023-04-14T08:02:15.360Z,100697.50
2023-04-14T08:07:18.187Z,100711.25
2023-04-14T08:12:22.338Z,100705.41
2023-04-14T08:17:25.479Z,100708.06
2023-04-14T08:22:28.220Z,100717.56
2023-04-14T08:27:32.621Z,100714.91
2023-04-14T08:32:35.380Z,100714.16
2023-04-14T08:37:38.125Z,100715.53
2023-04-14T08:42:42.285Z,100716.59
2023-04-14T08:47:47.157Z,100717.09
2023-04-14T08:52:56.220Z,100707.84
2023-04-14T08:58:01.955Z,100706.84
2023-04-14T09:03:05.864Z,100705.69
2023-04-14T09:08:08.948Z,100705.66
2023-04-14T09:13:15.282Z,100702.75
2023-04-14T09:18:18.192Z,100703.25
2023-04-14T09:23:22.673Z,100699.25
2023-04-14T09:28:26.831Z,100694.53
2023-04-14T09:33:29.978Z,100707.97
2023-04-14T09:38:34.094Z,100707.94
2023-04-14T09:43:38.214Z,100712.06
2023-04-14T09:48:52.088Z,100715.81
2023-04-14T09:53:55.766Z,100713.34
2023-04-14T09:59:02.359Z,100723.13
2023-04-14T10:04:05.585Z,100712.53
2023-04-14T10:09:08.319Z,100709.97
2023-04-14T10:14:12.447Z,100712.53
2023-04-14T10:19:15.551Z,100707.69
2023-04-14T10:24:18.394Z,100693.00
2023-04-14T10:29:22.862Z,100692.19
2023-04-14T10:34:26.936Z,100687.91
2023-04-14T10:39:29.676Z,100680.13
2023-04-14T10:44:35.426Z,100683.19
2023-04-14T10:49:41.101Z,100680.25
2023-04-14T10:54:52.551Z,100672.81
2023-04-14T10:59:58.691Z,100677.31
2023-04-14T11:05:04.244Z,100670.53
2023-04-14T11:10:27.002Z,100662.69
2023-04-14T11:15:47.891Z,100659.59
2023-04-14T11:20:53.598Z,100660.41
2023-04-14T11:25:59.201Z,100659.63
2023-04-14T11:31:05.985Z,100670.31
2023-04-14T11:36:10.303Z,100672.81
2023-04-14T11:41:16.075Z,100666.75
2023-04-14T11:46:22.452Z,100664.56
2023-04-14T11:51:32.448Z,100665.91
2023-04-14T11:56:37.234Z,100669.38
2023-04-14T12:01:41.390Z,100658.94
2023-04-14T12:06:45.327Z,100651.53
2023-04-14T12:11:55.352Z,100657.25
2023-04-14T12:16:59.525Z,100648.28
2023-04-14T12:22:02.311Z,100651.44
2023-04-14T12:27:06.307Z,100649.75
2023-04-14T12:32:13.019Z,100645.28
2023-04-14T12:37:16.441Z,100649.16
2023-04-14T12:42:19.929Z,100648.94
2023-04-14T12:47:32.640Z,100655.88
2023-04-14T12:52:38.175Z,100654.13
2023-04-14T12:57:41.232Z,100643.09
2023-04-14T13:02:46.411Z,100642.16
2023-04-14T13:07:49.905Z,100635.31
2023-04-14T13:12:52.748Z,100619.66
2023-04-14T13:17:56.805Z,100624.75
2023-04-14T13:22:59.607Z,100612.84
2023-04-14T13:28:02.382Z,100609.16
2023-04-14T13:33:06.500Z,100588.47
2023-04-14T13:38:09.279Z,100584.81
2023-04-14T13:43:13.859Z,100587.00
2023-04-14T13:48:18.733Z,100589.81
2023-04-14T13:53:21.598Z,100576.41
2023-04-14T13:58:25.366Z,100583.97
2023-04-14T14:03:30.808Z,100582.94
2023-04-14T14:08:37.743Z,100574.72
2023-04-14T14:13:40.709Z,100560.03
2023-04-14T14:18:46.503Z,100570.06
2023-04-14T14:23:50.086Z,100566.09
2023-04-14T14:28:53.035Z,100561.75
2023-04-14T14:33:57.139Z,100571.97
2023-04-14T14:38:59.893Z,100569.53
2023-04-14T14:44:03.035Z,100568.03
2023-04-14T14:49:08.518Z,100558.44
2023-04-14T14:54:11.707Z,100553.81
2023-04-14T14:59:16.216Z,100559.41
2023-04-14T15:04:20.361Z,100550.53
2023-04-14T15:09:23.504Z,100565.19
2023-04-14T15:14:26.315Z,100557.16
2023-04-14T15:19:33.067Z,100549.81
2023-04-14T15:24:36.067Z,100555.06
2023-04-14T15:29:38.813Z,100554.25
2023-04-14T15:34:42.934Z,100553.34
2023-04-14T15:39:45.746Z,100546.41
2023-04-14T15:44:50.294Z,100532.81
2023-04-14T15:50:10.063Z,100560.69
2023-04-14T15:55:13.951Z,100550.66
2023-04-14T16:00:17.602Z,100551.84
2023-04-14T16:05:23.549Z,100559.78
2023-04-14T16:10:26.626Z,100561.59
2023-04-14T16:15:29.534Z,100563.25
2023-04-14T16:20:34.124Z,100561.13
2023-04-14T16:25:37.746Z,100565.56
2023-04-14T16:30:40.462Z,100557.44
2023-04-14T16:35:44.723Z,100563.28
2023-04-14T16:40:55.901Z,100558.91
2023-04-14T16:46:02.162Z,100566.31
2023-04-14T16:51:08.297Z,100562.22
2023-04-14T16:56:13.058Z,100573.50
2023-04-14T17:01:16.075Z,100577.19
2023-04-14T17:06:20.519Z,100581.44
2023-04-14T17:11:23.266Z,100578.53
2023-04-14T17:16:26.071Z,100583.38
2023-04-14T17:21:30.577Z,100580.03
2023-04-14T17:26:33.448Z,100577.25
2023-04-14T17:31:38.951Z,100590.31
2023-04-14T17:36:44.123Z,100592.44
2023-04-14T17:41:47.822Z,100593.41
2023-04-14T17:46:50.528Z,100595.13
2023-04-14T17:51:54.993Z,100599.28
2023-04-14T17:56:57.748Z,100608.13
2023-04-14T18:02:00.568Z,100605.84
2023-04-14T18:07:04.737Z,100611.81
2023-04-14T18:12:07.526Z,100618.53
2023-04-14T18:17:10.623Z,100620.31
2023-04-14T18:22:14.832Z,100627.78
2023-04-14T18:32:25.222Z,100634.31
2023-04-14T18:37:29.473Z,100635.75
2023-04-14T18:42:32.730Z,100641.06
2023-04-14T18:47:35.616Z,100641.63
2023-04-14T18:52:40.051Z,100646.88
2023-04-14T18:57:42.786Z,100643.94
2023-04-14T19:02:45.747Z,100644.75
2023-04-14T19:07:49.941Z,100649.94
2023-04-14T19:12:52.862Z,100643.94
2023-04-14T19:17:56.057Z,100660.16
2023-04-14T19:23:00.490Z,100659.28
2023-04-14T19:28:05.652Z,100658.97
2023-04-14T19:33:08.487Z,100663.00
2023-04-14T19:38:13.420Z,100658.34
2023-04-14T19:43:18.531Z,100667.13
2023-04-14T19:48:31.807Z,100668.94
2023-04-14T19:53:37.005Z,100666.91
2023-04-14T19:58:40.561Z,100659.84
2023-04-14T20:04:05.661Z,100657.00
2023-04-14T20:09:07.655Z,100659.13
2023-04-14T20:14:10.716Z,100655.84
2023-04-14T20:19:13.648Z,100645.53
2023-04-14T20:24:17.824Z,100649.72
2023-04-14T20:29:20.616Z,100636.16
2023-04-14T20:34:23.447Z,100638.19
2023-04-14T20:39:27.592Z,100631.94
2023-04-14T20:44:30.552Z,100630.88
2023-04-14T20:49:33.625Z,100637.69
2023-04-14T20:54:38.284Z,100625.44
2023-04-14T20:59:41.038Z,100624.91
2023-04-14T21:04:43.814Z,100616.22
2023-04-14T21:09:49.055Z,100620.88
2023-04-14T21:15:31.331Z,100613.69
2023-04-14T21:20:14.863Z,100612.22
2023-04-14T21:25:18.947Z,100612.13
2023-04-14T21:30:21.852Z,100613.09
2023-04-14T21:35:25.077Z,100617.03
2023-04-14T21:40:29.587Z,100606.75
2023-04-14T21:45:32.862Z,100618.28
2023-04-14T21:50:35.712Z,100615.63
2023-04-14T21:55:40.007Z,100618.88
2023-04-14T22:00:42.828Z,100614.91
2023-04-14T22:05:45.660Z,100606.69
2023-04-14T22:10:49.862Z,100619.03
2023-04-14T22:15:52.765Z,100604.78
2023-04-14T22:20:55.654Z,100602.75
2023-04-14T22:25:59.813Z,100609.03
2023-04-14T22:31:02.755Z,100607.81
2023-04-14T22:36:07.028Z,100609.25
2023-04-14T22:41:11.123Z,100600.22
2023-04-14T22:46:13.921Z,100609.16
2023-04-14T22:51:16.847Z,100602.00
2023-04-14T22:56:20.968Z,100607.47
2023-04-14T23:01:24.436Z,100598.59
2023-04-14T23:06:27.300Z,100597.66
2023-04-14T23:11:31.926Z,100589.25
2023-04-14T23:16:35.104Z,100590.09
2023-04-14T23:21:37.831Z,100594.47
2023-04-14T23:26:42.149Z,100583.16
2023-04-14T23:31:44.945Z,100581.19
2023-04-14T23:36:48.122Z,100586.50
2023-04-14T23:41:52.245Z,100581.16
2023-04-14T23:46:55.206Z,100573.97
2023-04-14T23:51:58.115Z,100576.41
2023-04-14T23:57:02.396Z,100568.72
